Time;durP1;ratioP1;P1;durP2;ratioP2;P2;SDS_P1;SDS_P2;PMS_P1;PMS_P2;Temp;Humidity;BMP_temperature;BMP_pressure;BME280_temperature;BME280_humidity;BME280_pressure;Samples;Min_cycle;Max_cycle;Signal;HPM_P1;HPM_P2
2022/07/16 00:01:23;;;;;;;3.50;2.00;;;15.10;63.70;;;;;;5013150;28;20423;-73
2022/07/16 00:04:09;;;;;;;6.10;1.97;;;15.00;64.00;;;;;;5008986;28;20511;-73
2022/07/16 00:06:54;;;;;;;3.30;1.73;;;14.90;63.90;;;;;;5010305;28;20469;-73
2022/07/16 00:09:40;;;;;;;4.57;1.77;;;14.90;64.30;;;;;;5009642;28;20488;-73
2022/07/16 00:12:26;;;;;;;4.37;1.83;;;14.90;64.30;;;;;;5007277;28;20912;-73
2022/07/16 00:15:12;;;;;;;4.40;2.07;;;14.90;64.60;;;;;;5012423;28;20864;-73
2022/07/16 00:20:58;;;;;;;4.53;1.97;;;15.00;64.30;;;;;;5010548;28;20456;-73
2022/07/16 00:23:44;;;;;;;4.70;2.20;;;14.90;64.70;;;;;;5014067;28;20460;-73
2022/07/16 00:26:30;;;;;;;7.07;2.20;;;14.90;65.00;;;;;;5008864;28;20573;-73
2022/07/16 00:29:17;;;;;;;3.20;2.17;;;14.70;65.20;;;;;;5010906;28;20443;-73
2022/07/16 00:32:03;;;;;;;3.53;2.10;;;14.70;65.50;;;;;;5013095;28;20461;-73
2022/07/16 00:34:50;;;;;;;4.23;1.87;;;14.70;65.50;;;;;;5010597;28;22346;-73
2022/07/16 00:37:36;;;;;;;2.60;2.00;;;14.70;65.50;;;;;;5005837;28;20963;-73
2022/07/16 00:40:22;;;;;;;3.40;1.97;;;14.70;65.70;;;;;;5010944;28;20444;-73
2022/07/16 00:43:11;;;;;;;4.03;2.03;;;14.70;66.00;;;;;;5012723;28;21032;-73
2022/07/16 00:45:57;;;;;;;6.10;2.10;;;14.70;66.00;;;;;;5005933;28;20457;-73
2022/07/16 00:48:43;;;;;;;4.20;2.10;;;14.80;65.90;;;;;;5011590;28;20476;-73
2022/07/16 00:51:31;;;;;;;4.73;2.40;;;14.90;66.10;;;;;;5012411;28;20446;-73
2022/07/16 00:54:16;;;;;;;4.47;2.40;;;14.80;66.00;;;;;;5009043;28;20442;-73
2022/07/16 00:57:02;;;;;;;4.33;2.33;;;14.60;66.40;;;;;;5009740;28;20432;-73
2022/07/16 00:59:48;;;;;;;4.80;2.40;;;14.50;66.70;;;;;;5005127;28;20807;-73
2022/07/16 01:02:35;;;;;;;3.80;2.20;;;14.50;67.30;;;;;;5012569;28;20444;-73
2022/07/16 01:05:21;;;;;;;3.70;2.27;;;14.50;67.70;;;;;;5006617;28;20978;-72
2022/07/16 01:08:09;;;;;;;4.10;2.30;;;14.60;67.60;;;;;;5008283;28;21013;-72
2022/07/16 01:10:55;;;;;;;4.73;2.10;;;14.60;67.60;;;;;;5009215;28;20460;-72
2022/07/16 01:13:43;;;;;;;4.50;2.20;;;14.60;67.10;;;;;;5011634;28;20440;-72
2022/07/16 01:16:28;;;;;;;4.83;2.10;;;14.50;67.40;;;;;;5003305;28;20560;-73
2022/07/16 01:19:15;;;;;;;3.07;1.87;;;14.30;67.60;;;;;;5006326;28;20511;-73
2022/07/16 01:22:01;;;;;;;5.20;2.23;;;14.10;69.40;;;;;;5010797;28;20977;-72
2022/07/16 01:24:49;;;;;;;3.17;2.30;;;14.00;70.10;;;;;;5013690;28;20446;-73
2022/07/16 01:27:34;;;;;;;8.43;2.43;;;13.80;70.80;;;;;;5008404;28;20474;-73
2022/07/16 01:30:20;;;;;;;5.43;2.07;;;13.70;71.90;;;;;;5008414;28;20437;-72
2022/07/16 01:33:20;;;;;;;3.37;1.90;;;13.70;72.70;;;;;;5013546;28;20790;-73
2022/07/16 01:36:08;;;;;;;3.70;2.10;;;13.60;73.30;;;;;;5006040;28;20489;-73
2022/07/16 01:38:54;;;;;;;4.47;2.23;;;13.80;73.30;;;;;;5011019;28;20440;-73
2022/07/16 01:41:49;;;;;;;10.93;4.20;;;13.90;72.90;;;;;;5007395;28;20801;-72
2022/07/16 01:44:36;;;;;;;4.13;2.03;;;14.00;72.80;;;;;;5004214;28;20530;-73
2022/07/16 01:47:22;;;;;;;4.07;2.03;;;14.20;72.10;;;;;;5008396;28;20477;-73
2022/07/16 01:50:08;;;;;;;5.60;2.57;;;14.20;72.00;;;;;;5009000;28;20508;-72
2022/07/16 01:52:53;;;;;;;3.77;2.10;;;14.10;71.70;;;;;;5007214;28;20420;-72
2022/07/16 01:55:40;;;;;;;5.23;2.10;;;13.90;71.80;;;;;;5005145;28;20449;-72
2022/07/16 01:58:28;;;;;;;5.67;2.80;;;13.70;72.20;;;;;;5004202;28;20441;-73
2022/07/16 02:01:14;;;;;;;6.13;2.20;;;13.50;73.70;;;;;;5008231;28;20523;-72
2022/07/16 02:03:59;;;;;;;3.47;2.50;;;13.60;73.50;;;;;;5013661;28;20432;-73
2022/07/16 02:06:45;;;;;;;8.40;2.77;;;13.70;73.60;;;;;;5005481;28;21061;-73
2022/07/16 02:09:31;;;;;;;4.53;2.43;;;13.80;73.80;;;;;;5006403;28;20444;-72
2022/07/16 02:12:16;;;;;;;6.00;2.30;;;13.90;73.20;;;;;;5008323;28;20453;-72
2022/07/16 02:15:05;;;;;;;3.90;2.80;;;13.90;72.50;;;;;;5005984;28;20420;-73
2022/07/16 02:17:50;;;;;;;6.33;2.30;;;13.90;72.40;;;;;;5008522;28;21522;-72
2022/07/16 02:20:36;;;;;;;4.17;2.93;;;13.90;72.40;;;;;;5008676;28;20601;-72
2022/07/16 02:23:21;;;;;;;5.27;2.40;;;13.90;72.70;;;;;;5010712;28;20510;-73
2022/07/16 02:26:07;;;;;;;4.47;2.57;;;13.90;72.40;;;;;;5009232;28;20813;-73
2022/07/16 02:28:53;;;;;;;3.70;2.60;;;13.80;72.50;;;;;;5011723;28;20844;-73
2022/07/16 02:31:40;;;;;;;3.97;2.43;;;13.80;73.00;;;;;;5003204;28;20536;-72
2022/07/16 02:34:26;;;;;;;5.70;1.90;;;13.70;72.90;;;;;;5004499;28;20490;-72
2022/07/16 02:37:11;;;;;;;3.47;2.30;;;13.60;73.60;;;;;;5006931;28;20448;-73
2022/07/16 02:39:57;;;;;;;4.50;2.40;;;13.50;74.00;;;;;;5005433;28;20499;-72
2022/07/16 02:42:43;;;;;;;5.20;2.37;;;13.40;74.10;;;;;;5013104;28;20442;-73
2022/07/16 02:45:29;;;;;;;3.33;2.90;;;13.30;74.80;;;;;;5003925;28;20453;-73
2022/07/16 02:48:16;;;;;;;4.23;2.50;;;13.40;75.00;;;;;;5005870;28;20530;-72
2022/07/16 02:51:02;;;;;;;3.07;2.50;;;13.30;75.10;;;;;;5013292;28;20412;-72
2022/07/16 02:53:47;;;;;;;3.50;2.43;;;13.40;75.10;;;;;;5008295;28;21357;-72
2022/07/16 02:56:33;;;;;;;5.10;2.20;;;13.30;75.40;;;;;;5003183;28;20453;-73
2022/07/16 02:59:19;;;;;;;6.30;2.53;;;13.20;75.50;;;;;;5003654;28;20464;-72
2022/07/16 03:02:06;;;;;;;4.70;2.30;;;13.10;76.40;;;;;;5007131;28;20524;-72
2022/07/16 03:04:53;;;;;;;9.00;2.50;;;13.20;76.60;;;;;;5010599;28;20429;-72
2022/07/16 03:07:39;;;;;;;4.20;2.40;;;13.30;76.00;;;;;;5010764;28;20604;-73
2022/07/16 03:10:25;;;;;;;4.90;2.57;;;13.30;75.80;;;;;;5011109;28;20912;-72
2022/07/16 03:13:10;;;;;;;10.67;2.90;;;13.40;75.90;;;;;;5011349;28;20466;-72
2022/07/16 03:15:56;;;;;;;3.10;2.30;;;13.40;75.70;;;;;;5010637;28;20456;-73
2022/07/16 03:18:42;;;;;;;4.30;2.40;;;13.40;75.10;;;;;;5011799;28;20460;-73
2022/07/16 03:21:29;;;;;;;3.47;2.33;;;13.40;75.10;;;;;;5003894;28;20457;-72
2022/07/16 03:24:16;;;;;;;3.60;2.33;;;13.30;75.10;;;;;;5008016;28;20452;-72
2022/07/16 03:27:02;;;;;;;3.90;2.67;;;13.00;76.30;;;;;;5018331;28;20415;-73
2022/07/16 03:29:48;;;;;;;4.80;2.30;;;12.90;77.50;;;;;;5010203;28;20481;-72
2022/07/16 03:32:33;;;;;;;9.67;2.60;;;12.90;77.80;;;;;;5010123;28;20471;-72
2022/07/16 03:35:19;;;;;;;6.70;2.67;;;13.00;78.00;;;;;;5008963;28;20974;-72
2022/07/16 03:41:09;;;;;;;5.43;2.60;;;13.00;77.80;;;;;;5011519;28;20437;-73
2022/07/16 03:43:55;;;;;;;3.40;2.30;;;13.10;77.30;;;;;;5007289;28;20503;-73
2022/07/16 03:46:41;;;;;;;9.23;2.43;;;13.10;76.70;;;;;;5013686;28;20976;-73
2022/07/16 03:49:26;;;;;;;13.83;2.80;;;13.20;76.80;;;;;;5006601;28;20561;-73
2022/07/16 03:52:12;;;;;;;6.47;2.13;;;13.20;76.60;;;;;;5011874;28;20519;-72
2022/07/16 03:54:59;;;;;;;3.53;2.50;;;13.20;76.90;;;;;;5015172;28;20948;-72
2022/07/16 03:57:45;;;;;;;3.70;2.10;;;13.10;77.30;;;;;;5006636;28;20423;-73
2022/07/16 04:00:30;;;;;;;4.37;2.40;;;13.00;77.50;;;;;;5017496;28;20472;-72
2022/07/16 04:03:16;;;;;;;8.93;2.77;;;13.00;78.20;;;;;;5005226;28;20999;-73
2022/07/16 04:06:02;;;;;;;4.37;2.23;;;13.00;78.20;;;;;;5009129;28;20460;-72
2022/07/16 04:08:48;;;;;;;7.90;2.57;;;13.20;78.20;;;;;;5042634;22;20676;-91
2022/07/16 04:11:35;;;;;;;8.30;2.60;;;13.30;77.50;;;;;;5080495;28;20704;-91
2022/07/16 04:14:21;;;;;;;3.47;2.40;;;13.30;77.50;;;;;;5088196;28;20412;-91
2022/07/16 04:17:06;;;;;;;4.20;2.57;;;13.40;78.30;;;;;;5091563;28;20472;-92
2022/07/16 04:19:52;;;;;;;9.20;2.53;;;13.50;78.60;;;;;;5079300;28;20497;-92
2022/07/16 04:22:38;;;;;;;8.00;2.60;;;13.50;78.20;;;;;;5079031;28;20446;-91
2022/07/16 04:25:24;;;;;;;9.03;2.80;;;13.30;77.60;;;;;;5084495;28;20544;-91
2022/07/16 04:28:11;;;;;;;6.37;2.43;;;13.20;78.40;;;;;;5096558;28;20837;-91
2022/07/16 04:30:57;;;;;;;3.60;2.40;;;13.10;79.10;;;;;;5092440;28;21034;-92
2022/07/16 04:33:43;;;;;;;4.80;2.47;;;13.20;79.80;;;;;;5091240;28;20434;-91
2022/07/16 04:36:29;;;;;;;3.43;2.30;;;13.40;79.20;;;;;;5090689;28;20578;-91
2022/07/16 04:39:15;;;;;;;4.50;2.37;;;13.40;79.20;;;;;;5091793;28;20807;-91
2022/07/16 04:42:00;;;;;;;5.03;2.53;;;13.40;79.40;;;;;;5092589;28;20539;-92
2022/07/16 04:44:47;;;;;;;4.30;2.20;;;13.50;79.60;;;;;;5089039;28;20417;-93
2022/07/16 04:47:33;;;;;;;4.00;2.70;;;13.50;79.50;;;;;;5085058;28;20588;-93
2022/07/16 04:50:19;;;;;;;6.60;2.77;;;13.60;79.30;;;;;;5088944;28;20760;-92
2022/07/16 04:53:05;;;;;;;4.10;2.80;;;13.70;78.80;;;;;;5086185;28;20826;-91
2022/07/16 04:55:51;;;;;;;4.80;2.50;;;13.80;78.90;;;;;;5085179;28;20448;-91
2022/07/16 04:58:37;;;;;;;4.80;2.20;;;13.90;78.90;;;;;;5092751;28;20404;-91
2022/07/16 05:01:24;;;;;;;5.63;2.67;;;14.00;79.00;;;;;;5089607;28;20437;-90
2022/07/16 05:04:10;;;;;;;4.30;3.03;;;14.00;78.40;;;;;;5093655;28;20515;-91
2022/07/16 05:06:56;;;;;;;5.13;2.97;;;13.90;78.10;;;;;;5090236;28;20523;-91
2022/07/16 05:09:41;;;;;;;6.60;3.70;;;14.00;78.30;;;;;;5092356;28;20502;-91
2022/07/16 05:12:27;;;;;;;5.10;3.17;;;14.10;79.10;;;;;;5088748;28;20570;-91
2022/07/16 05:15:13;;;;;;;4.33;2.50;;;14.20;79.50;;;;;;5083515;28;20446;-91
2022/07/16 05:18:00;;;;;;;6.00;2.50;;;14.40;79.30;;;;;;5092379;28;20461;-91
2022/07/16 05:20:46;;;;;;;6.77;3.00;;;14.50;79.40;;;;;;5091848;28;20519;-91
2022/07/16 05:23:32;;;;;;;4.03;2.70;;;14.70;79.60;;;;;;5085371;28;20405;-91
2022/07/16 05:26:17;;;;;;;5.30;2.40;;;14.80;79.70;;;;;;5083347;28;20465;-91
2022/07/16 05:29:03;;;;;;;8.30;2.70;;;14.90;79.70;;;;;;5087979;28;20432;-92
2022/07/16 05:31:49;;;;;;;4.30;2.50;;;15.00;79.40;;;;;;5084892;28;20421;-92
2022/07/16 05:34:36;;;;;;;5.93;2.30;;;15.20;78.50;;;;;;5089548;28;20557;-91
2022/07/16 05:37:21;;;;;;;4.00;3.37;;;15.30;78.80;;;;;;5089213;28;20476;-91
2022/07/16 05:40:08;;;;;;;5.27;2.43;;;15.40;78.70;;;;;;5089264;28;20446;-91
2022/07/16 05:42:54;;;;;;;3.37;2.40;;;15.40;78.90;;;;;;5083576;28;20496;-92
2022/07/16 05:45:40;;;;;;;7.40;2.60;;;15.60;78.20;;;;;;5089326;28;20804;-91
2022/07/16 05:48:25;;;;;;;8.00;2.33;;;15.70;78.10;;;;;;5084935;28;20845;-91
2022/07/16 05:51:12;;;;;;;6.83;3.70;;;15.80;77.80;;;;;;5091385;28;20796;-91
2022/07/16 05:53:58;;;;;;;5.37;2.43;;;15.80;78.20;;;;;;5089615;28;20517;-92
2022/07/16 05:56:44;;;;;;;5.20;2.60;;;15.90;77.20;;;;;;5093392;28;20570;-91
2022/07/16 05:59:29;;;;;;;6.23;2.50;;;16.10;76.70;;;;;;5084846;28;20413;-92
2022/07/16 06:02:15;;;;;;;4.70;2.67;;;16.10;77.30;;;;;;5087376;28;20442;-91
2022/07/16 06:05:01;;;;;;;14.10;3.63;;;16.20;76.20;;;;;;5088839;28;20437;-91
2022/07/16 06:07:49;;;;;;;4.33;2.43;;;16.30;76.70;;;;;;5087854;28;20538;-92
2022/07/16 06:10:34;;;;;;;6.57;2.40;;;16.40;74.50;;;;;;5084407;28;20473;-93
2022/07/16 06:13:20;;;;;;;3.97;2.50;;;16.50;73.40;;;;;;5094005;28;20449;-93
2022/07/16 06:16:07;;;;;;;4.53;2.33;;;16.70;73.30;;;;;;5084448;28;20522;-93
2022/07/16 06:18:52;;;;;;;4.73;2.43;;;16.80;71.40;;;;;;5080183;28;20768;-92
2022/07/16 06:21:38;;;;;;;7.13;2.20;;;16.80;72.00;;;;;;5082953;28;20516;-92
2022/07/16 06:24:25;;;;;;;5.43;2.47;;;17.00;72.10;;;;;;5086592;28;20781;-92
2022/07/16 06:27:11;;;;;;;7.07;2.90;;;17.10;72.20;;;;;;5086424;28;20977;-92
2022/07/16 06:29:57;;;;;;;5.33;2.30;;;17.20;71.60;;;;;;5089399;28;20461;-92
2022/07/16 06:32:43;;;;;;;3.10;2.47;;;17.30;71.20;;;;;;5090735;28;20946;-92
2022/07/16 06:35:29;;;;;;;4.80;2.40;;;17.50;68.20;;;;;;5089030;28;20437;-91
2022/07/16 06:38:15;;;;;;;4.60;2.37;;;17.60;68.10;;;;;;5090398;28;20380;-92
2022/07/16 06:41:02;;;;;;;4.30;2.63;;;17.70;64.90;;;;;;5083473;28;20568;-92
2022/07/16 06:43:48;;;;;;;9.03;1.90;;;17.80;63.70;;;;;;5087280;28;20442;-92
2022/07/16 06:46:34;;;;;;;6.83;2.10;;;18.00;64.70;;;;;;5074911;28;20437;-90
2022/07/16 06:49:20;;;;;;;6.20;2.10;;;18.10;64.50;;;;;;5085273;28;20467;-92
2022/07/16 06:52:06;;;;;;;4.43;2.00;;;18.30;64.30;;;;;;5089477;28;20458;-92
2022/07/16 06:54:52;;;;;;;4.73;2.20;;;18.40;63.40;;;;;;5081800;28;20447;-92
2022/07/16 06:57:39;;;;;;;6.80;2.13;;;18.50;63.70;;;;;;5081005;28;20534;-92
2022/07/16 07:00:24;;;;;;;5.30;2.30;;;18.60;62.90;;;;;;5088276;28;20576;-93
2022/07/16 07:03:11;;;;;;;4.33;2.73;;;18.70;62.00;;;;;;5089469;28;21031;-92
2022/07/16 07:05:57;;;;;;;11.10;2.70;;;18.80;61.10;;;;;;5091918;28;20535;-91
2022/07/16 07:08:43;;;;;;;2.77;1.57;;;18.90;61.70;;;;;;5090349;28;20532;-91
2022/07/16 07:11:29;;;;;;;5.10;2.20;;;19.10;62.50;;;;;;5087750;28;20564;-91
2022/07/16 07:14:16;;;;;;;3.67;1.93;;;19.20;61.40;;;;;;5086770;28;20777;-92
2022/07/16 07:17:02;;;;;;;8.33;1.83;;;19.40;61.30;;;;;;5102368;22;20599;-69
2022/07/16 07:19:48;;;;;;;6.00;1.90;;;19.40;60.30;;;;;;5085971;28;20531;-69
2022/07/16 07:22:33;;;;;;;5.37;2.23;;;19.60;59.60;;;;;;5088477;28;20579;-69
2022/07/16 07:25:19;;;;;;;2.63;1.60;;;19.70;58.30;;;;;;5087111;28;21049;-69
2022/07/16 07:28:05;;;;;;;4.33;1.67;;;19.90;55.00;;;;;;5084291;28;20938;-68
2022/07/16 07:30:52;;;;;;;3.13;1.40;;;20.00;54.10;;;;;;5078692;28;20485;-70
2022/07/16 07:33:38;;;;;;;5.43;1.70;;;20.20;54.60;;;;;;5087056;28;20648;-69
2022/07/16 07:36:24;;;;;;;2.57;1.77;;;20.30;52.30;;;;;;5079533;28;20442;-69
2022/07/16 07:39:09;;;;;;;5.57;2.03;;;20.30;45.80;;;;;;5083311;28;20466;-67
2022/07/16 07:41:55;;;;;;;3.90;1.80;;;20.30;42.90;;;;;;5083872;28;20449;-69
2022/07/16 07:44:41;;;;;;;9.00;1.47;;;20.30;40.70;;;;;;5075891;28;20540;-69
2022/07/16 07:47:28;;;;;;;5.87;1.80;;;20.40;38.00;;;;;;5090876;28;20441;-68
2022/07/16 07:50:14;;;;;;;5.20;1.40;;;20.60;40.20;;;;;;5081190;28;20550;-68
2022/07/16 07:52:59;;;;;;;4.43;1.77;;;20.60;38.50;;;;;;5088462;28;20942;-69
2022/07/16 07:55:45;;;;;;;3.60;1.57;;;20.60;36.70;;;;;;5084306;28;20441;-69
2022/07/16 07:58:31;;;;;;;3.83;1.30;;;20.50;36.60;;;;;;5089097;28;20792;-69
2022/07/16 08:01:16;;;;;;;4.00;1.43;;;20.60;37.40;;;;;;5092031;28;20519;-69
2022/07/16 08:04:03;;;;;;;3.80;1.40;;;20.70;37.90;;;;;;5087837;28;20433;-68
2022/07/16 08:06:49;;;;;;;4.63;1.97;;;20.80;35.60;;;;;;5084465;28;20434;-69
2022/07/16 08:09:35;;;;;;;3.07;1.70;;;20.80;35.10;;;;;;5089618;28;20600;-68
2022/07/16 08:12:20;;;;;;;4.23;1.60;;;20.70;35.20;;;;;;5091870;28;20438;-69
2022/07/16 08:15:07;;;;;;;5.33;1.70;;;20.70;35.50;;;;;;5090938;28;20456;-69
2022/07/16 08:17:53;;;;;;;8.73;1.80;;;20.80;34.20;;;;;;5081299;28;20441;-69
2022/07/16 08:20:40;;;;;;;5.13;1.40;;;20.90;37.40;;;;;;5084136;28;20437;-68
2022/07/16 08:26:31;;;;;;;4.00;1.93;;;21.10;36.40;;;;;;5058917;28;20425;-69
2022/07/16 08:29:16;;;;;;;3.90;1.60;;;21.20;36.10;;;;;;5083077;28;20991;-69
2022/07/16 08:32:02;;;;;;;4.07;1.67;;;21.20;35.20;;;;;;5086033;28;20421;-69
2022/07/16 08:34:47;;;;;;;4.50;1.90;;;21.20;35.40;;;;;;5086554;28;20439;-68
2022/07/16 08:37:38;;;;;;;6.63;2.03;;;21.10;36.20;;;;;;5090704;28;20838;-69
2022/07/16 08:40:24;;;;;;;5.90;2.00;;;21.20;36.50;;;;;;5085986;28;20548;-69
2022/07/16 08:43:10;;;;;;;13.77;2.00;;;21.30;35.70;;;;;;5085493;28;20474;-69
2022/07/16 08:45:57;;;;;;;7.90;2.40;;;21.20;35.90;;;;;;5083025;28;20528;-69
2022/07/16 08:48:43;;;;;;;8.07;1.40;;;21.30;37.00;;;;;;5086557;28;20675;-69
2022/07/16 08:51:32;;;;;;;5.40;2.00;;;21.40;35.30;;;;;;5086833;28;20507;-70
2022/07/16 08:54:21;;;;;;;9.47;2.03;;;21.40;34.90;;;;;;5090947;28;20953;-69
2022/07/16 08:57:08;;;;;;;6.43;1.50;;;21.50;35.10;;;;;;5087468;28;20422;-69
2022/07/16 08:59:55;;;;;;;10.40;1.83;;;21.60;35.70;;;;;;5084550;28;21858;-70
2022/07/16 09:02:41;;;;;;;3.20;2.00;;;21.70;35.00;;;;;;5088240;28;20441;-70
2022/07/16 09:05:27;;;;;;;4.60;1.93;;;21.70;35.20;;;;;;5087320;28;20422;-70
2022/07/16 09:08:12;;;;;;;3.73;1.70;;;21.90;36.20;;;;;;5079323;28;20455;-69
2022/07/16 09:11:17;;;;;;;3.60;1.70;;;22.00;35.00;;;;;;5087491;28;20500;-68
2022/07/16 09:14:06;;;;;;;7.17;1.60;;;21.90;33.30;;;;;;5093756;28;20491;-68
2022/07/16 09:16:54;;;;;;;5.27;2.10;;;21.80;34.50;;;;;;5085699;28;20537;-68
2022/07/16 09:19:40;;;;;;;4.03;1.57;;;21.90;34.30;;;;;;5083325;28;20552;-68
2022/07/16 09:22:26;;;;;;;6.40;1.90;;;21.90;32.90;;;;;;5084809;28;20970;-68
2022/07/16 09:25:11;;;;;;;4.60;1.50;;;21.70;33.00;;;;;;5085565;28;20441;-68
2022/07/16 09:28:00;;;;;;;3.43;1.80;;;21.70;35.90;;;;;;5083605;28;20446;-68
2022/07/16 09:30:46;;;;;;;4.43;1.70;;;21.90;35.80;;;;;;5083186;28;20521;-69
2022/07/16 09:33:31;;;;;;;6.23;2.10;;;22.00;33.00;;;;;;5087904;28;20431;-69
2022/07/16 09:36:17;;;;;;;6.17;2.33;;;22.00;35.20;;;;;;5081791;28;20525;-68
2022/07/16 09:39:03;;;;;;;5.13;1.97;;;22.10;34.10;;;;;;5084611;28;21017;-68
2022/07/16 09:41:49;;;;;;;8.77;2.00;;;22.20;32.90;;;;;;5087966;28;20552;-68
2022/07/16 09:44:43;;;;;;;8.13;1.93;;;22.30;34.50;;;;;;5088690;28;20485;-68
2022/07/16 09:47:29;;;;;;;3.47;1.80;;;22.40;33.80;;;;;;5082225;28;20446;-68
2022/07/16 09:50:15;;;;;;;3.60;1.80;;;22.60;32.00;;;;;;5089742;28;21005;-68
2022/07/16 09:53:14;;;;;;;3.80;1.70;;;22.60;31.00;;;;;;5087194;28;20446;-68
2022/07/16 09:56:02;;;;;;;4.77;1.67;;;22.40;31.10;;;;;;5081003;28;20441;-69
2022/07/16 09:58:50;;;;;;;5.00;1.83;;;22.40;33.60;;;;;;5084934;28;20469;-70
2022/07/16 10:01:37;;;;;;;3.23;1.47;;;22.50;32.20;;;;;;5083735;28;20443;-70
2022/07/16 10:04:23;;;;;;;8.00;2.23;;;22.70;31.90;;;;;;5089838;28;20988;-71
2022/07/16 10:07:09;;;;;;;9.20;2.43;;;22.80;32.00;;;;;;5085671;28;20457;-70
2022/07/16 10:09:54;;;;;;;6.63;2.10;;;23.00;30.20;;;;;;5086532;22;20955;-74
2022/07/16 10:12:41;;;;;;;4.93;2.80;;;23.10;30.80;;;;;;5068516;28;20795;-73
2022/07/16 10:15:27;;;;;;;5.37;1.80;;;23.10;30.90;;;;;;5067388;28;20458;-73
2022/07/16 10:18:40;;;;;;;3.97;1.73;;;23.20;32.10;;;;;;5064241;28;20434;-74
2022/07/16 10:21:25;;;;;;;6.90;1.97;;;23.20;30.80;;;;;;5040927;28;20478;-73
2022/07/16 10:24:13;;;;;;;4.40;2.03;;;23.20;30.30;;;;;;5047053;28;20447;-73
2022/07/16 10:27:18;;;;;;;5.90;1.80;;;23.30;29.80;;;;;;5047004;28;20447;-73
2022/07/16 10:30:16;;;;;;;5.57;1.80;;;23.40;31.50;;;;;;5048131;28;20570;-74
2022/07/16 10:33:13;;;;;;;8.67;2.20;;;23.30;29.10;;;;;;5046229;28;20498;-73
2022/07/16 10:36:06;;;;;;;3.40;1.60;;;23.40;29.20;;;;;;5046880;28;20435;-73
2022/07/16 10:39:05;;;;;;;6.83;2.00;;;23.50;30.90;;;;;;5049060;28;20967;-73
2022/07/16 10:41:53;;;;;;;5.90;2.23;;;23.70;29.70;;;;;;5049974;28;20582;-73
2022/07/16 10:44:46;;;;;;;3.93;1.63;;;23.70;29.90;;;;;;5045339;28;20629;-73
2022/07/16 10:47:50;;;;;;;5.73;2.17;;;23.80;29.90;;;;;;5047441;28;20875;-74
2022/07/16 10:50:36;;;;;;;3.37;1.90;;;23.80;31.40;;;;;;5049114;28;20466;-73
2022/07/16 10:53:23;;;;;;;5.17;2.17;;;23.90;31.00;;;;;;5049776;28;20494;-73
2022/07/16 10:56:32;;;;;;;4.40;2.00;;;24.00;28.60;;;;;;5047371;28;20797;-74
2022/07/16 10:59:20;;;;;;;3.80;1.93;;;23.80;29.50;;;;;;5052144;28;20467;-73
2022/07/16 11:02:08;;;;;;;4.20;2.03;;;24.00;29.70;;;;;;5046938;28;20464;-73
2022/07/16 11:04:54;;;;;;;4.40;1.93;;;24.20;28.90;;;;;;5048256;28;20444;-74
2022/07/16 11:07:40;;;;;;;4.60;1.87;;;24.30;29.20;;;;;;5044827;28;20442;-74
2022/07/16 11:10:28;;;;;;;4.47;2.10;;;24.40;28.70;;;;;;5049498;28;20467;-73
2022/07/16 11:13:15;;;;;;;8.03;1.87;;;24.30;28.40;;;;;;5048901;28;20962;-73
2022/07/16 11:16:09;;;;;;;4.23;2.20;;;24.30;28.10;;;;;;5050456;28;20443;-73
2022/07/16 11:18:55;;;;;;;4.47;1.60;;;24.40;28.50;;;;;;5045786;28;20551;-73
2022/07/16 11:21:52;;;;;;;3.50;1.93;;;24.50;28.30;;;;;;5051064;28;20506;-74
2022/07/16 11:24:45;;;;;;;10.87;2.20;;;24.70;28.50;;;;;;5057826;28;20449;-73
2022/07/16 11:27:33;;;;;;;3.30;1.83;;;24.80;27.40;;;;;;5051599;28;20814;-74
2022/07/16 11:30:18;;;;;;;5.60;1.80;;;24.80;27.00;;;;;;5049216;28;20594;-71
2022/07/16 11:33:04;;;;;;;4.53;2.07;;;24.80;26.50;;;;;;5055219;28;21021;-74
2022/07/16 11:36:05;;;;;;;7.30;2.13;;;25.00;27.10;;;;;;5060313;28;20451;-73
2022/07/16 11:38:56;;;;;;;5.07;2.23;;;25.10;26.40;;;;;;5051859;28;20541;-73
2022/07/16 11:41:44;;;;;;;4.60;2.40;;;25.30;26.40;;;;;;5056266;28;20671;-73
2022/07/16 11:44:33;;;;;;;4.90;2.20;;;25.10;26.90;;;;;;5056170;28;20438;-73
2022/07/16 11:47:19;;;;;;;3.93;1.90;;;25.10;25.90;;;;;;5054640;28;21148;-74
2022/07/16 11:50:05;;;;;;;3.13;1.80;;;25.30;26.60;;;;;;5046925;28;21558;-74
2022/07/16 11:52:51;;;;;;;4.63;1.70;;;25.40;26.20;;;;;;5051604;28;20467;-73
2022/07/16 11:55:42;;;;;;;4.10;1.87;;;25.50;26.10;;;;;;5058461;28;20452;-73
2022/07/16 11:58:28;;;;;;;3.80;1.80;;;25.50;26.10;;;;;;5052355;28;20561;-74
2022/07/16 12:01:23;;;;;;;4.17;1.97;;;25.70;26.20;;;;;;5050120;28;20525;-74
2022/07/16 12:04:09;;;;;;;2.80;1.57;;;25.70;26.00;;;;;;5049469;28;21493;-74
2022/07/16 12:06:55;;;;;;;5.20;1.80;;;25.80;26.30;;;;;;5049644;28;20474;-73
2022/07/16 12:09:42;;;;;;;2.73;1.50;;;25.90;25.10;;;;;;5050839;28;20459;-73
2022/07/16 12:12:29;;;;;;;7.70;2.13;;;26.00;25.80;;;;;;5052376;28;20831;-74
2022/07/16 12:15:15;;;;;;;4.17;1.67;;;26.20;24.70;;;;;;5049317;28;20471;-71
2022/07/16 12:18:14;;;;;;;10.53;2.10;;;25.90;23.40;;;;;;5051073;28;20959;-72
2022/07/16 12:21:27;;;;;;;10.10;2.40;;;25.70;24.90;;;;;;5053574;28;20444;-71
2022/07/16 12:24:12;;;;;;;5.23;1.90;;;25.50;25.30;;;;;;5047568;28;20984;-73
2022/07/16 12:26:58;;;;;;;4.23;2.27;;;25.70;26.10;;;;;;5053245;28;20446;-74
2022/07/16 12:29:45;;;;;;;4.97;2.30;;;25.90;25.50;;;;;;5058669;28;20841;-73
2022/07/16 12:32:47;;;;;;;4.60;2.13;;;26.10;24.70;;;;;;5051893;28;20435;-74
2022/07/16 12:35:48;;;;;;;5.17;1.93;;;26.10;24.80;;;;;;5052018;28;20454;-74
2022/07/16 12:38:44;;;;;;;3.60;2.00;;;26.10;25.50;;;;;;5057301;28;20989;-73
2022/07/16 12:41:32;;;;;;;3.70;1.83;;;26.10;24.30;;;;;;5058709;28;20466;-73
2022/07/16 12:44:18;;;;;;;4.00;2.10;;;26.40;25.50;;;;;;5049358;28;20896;-74
2022/07/16 12:47:04;;;;;;;12.83;2.27;;;26.10;24.70;;;;;;5045579;28;20546;-73
2022/07/16 12:49:50;;;;;;;5.60;1.90;;;26.10;23.60;;;;;;5051336;28;20822;-73
2022/07/16 12:52:37;;;;;;;3.90;1.87;;;26.00;23.70;;;;;;5055302;28;20440;-72
2022/07/16 13:01:30;;;;;;;4.50;2.50;;;26.20;23.70;;;;;;5058867;28;20482;-72
2022/07/16 13:04:17;;;;;;;3.53;1.60;;;26.50;24.20;;;;;;5050081;28;20455;-73
2022/07/16 13:07:03;;;;;;;10.73;2.40;;;26.60;23.80;;;;;;5050341;28;20838;-72
2022/07/16 13:09:53;;;;;;;4.63;1.80;;;26.60;22.90;;;;;;5049431;28;20996;-72
2022/07/16 13:12:39;;;;;;;3.80;1.93;;;26.80;22.80;;;;;;5049573;28;20517;-72
2022/07/16 13:15:25;;;;;;;9.43;2.00;;;26.90;23.00;;;;;;5047506;28;20439;-72
2022/07/16 13:18:10;;;;;;;3.60;1.80;;;26.90;22.10;;;;;;5056892;28;20442;-72
2022/07/16 13:20:56;;;;;;;8.13;1.80;;;26.90;22.70;;;;;;5051075;28;20443;-71
2022/07/16 13:23:42;;;;;;;3.37;2.00;;;27.00;21.90;;;;;;5049070;28;20471;-72
2022/07/16 13:26:31;;;;;;;4.50;2.63;;;27.10;21.80;;;;;;5055737;28;20599;-69
2022/07/16 13:29:17;;;;;;;4.63;1.97;;;27.10;22.10;;;;;;5055017;28;20849;-69
2022/07/16 13:32:02;;;;;;;3.50;1.50;;;27.30;22.30;;;;;;5051946;28;20463;-71
2022/07/16 13:34:48;;;;;;;5.10;1.80;;;27.30;22.00;;;;;;5050736;28;20529;-72
2022/07/16 13:37:33;;;;;;;3.03;1.80;;;27.20;21.30;;;;;;5051823;28;20643;-71
2022/07/16 13:40:19;;;;;;;3.80;1.83;;;26.80;21.40;;;;;;5049703;28;21031;-72
2022/07/16 13:43:07;;;;;;;3.70;2.10;;;26.90;22.30;;;;;;5047649;28;20459;-71
2022/07/16 13:45:52;;;;;;;4.50;2.23;;;27.00;22.00;;;;;;5051851;28;20444;-72
2022/07/16 13:48:40;;;;;;;3.77;1.87;;;27.00;22.60;;;;;;5053031;28;20493;-72
2022/07/16 13:51:26;;;;;;;4.97;2.43;;;27.10;20.60;;;;;;5054872;28;20495;-71
2022/07/16 13:54:12;;;;;;;4.07;2.10;;;27.20;21.80;;;;;;5046967;28;20854;-71
2022/07/16 13:58:13;;;;;;;3.07;2.00;;;27.30;21.40;;;;;;5052428;28;20455;-73
2022/07/16 14:00:07;;;;;;;4.60;1.80;;;27.40;21.60;;;;;;5051073;28;20463;-72
2022/07/16 14:02:53;;;;;;;5.17;2.00;;;27.60;21.40;;;;;;5044671;28;20546;-71
2022/07/16 14:05:39;;;;;;;5.20;2.37;;;27.60;22.60;;;;;;5054712;28;20471;-71
2022/07/16 14:08:26;;;;;;;13.80;2.50;;;27.40;22.60;;;;;;5048801;28;20506;-71
2022/07/16 14:11:12;;;;;;;5.30;1.90;;;27.10;22.70;;;;;;5050762;28;20579;-72
2022/07/16 14:13:58;;;;;;;4.63;2.23;;;26.90;22.80;;;;;;5045678;28;20447;-71
2022/07/16 14:16:45;;;;;;;4.43;2.50;;;26.70;23.10;;;;;;5053135;28;20958;-71
2022/07/16 14:19:31;;;;;;;4.83;1.83;;;26.40;23.70;;;;;;5054865;28;20496;-71
2022/07/16 14:22:17;;;;;;;4.70;2.60;;;26.10;24.40;;;;;;5046820;28;21122;-71
2022/07/16 14:25:03;;;;;;;5.70;2.50;;;26.10;24.40;;;;;;5050181;28;20463;-72
2022/07/16 14:27:49;;;;;;;3.43;1.80;;;26.20;24.40;;;;;;5056061;28;20577;-72
2022/07/16 14:30:35;;;;;;;4.63;2.00;;;26.20;24.70;;;;;;5053479;28;20475;-72
2022/07/16 14:33:22;;;;;;;13.23;3.47;;;26.10;25.00;;;;;;5049687;28;21171;-72
2022/07/16 14:36:08;;;;;;;10.17;2.20;;;26.20;24.70;;;;;;5046699;28;20451;-71
2022/07/16 14:38:54;;;;;;;7.33;2.70;;;26.40;24.40;;;;;;5049937;28;20475;-71
2022/07/16 14:41:39;;;;;;;8.90;2.77;;;26.60;24.40;;;;;;5046417;28;20922;-71
2022/07/16 14:44:25;;;;;;;8.57;2.33;;;26.80;23.10;;;;;;5049997;28;20443;-72